createdAt,value
2018-10-18T00:01:53.751Z,72.50
2018-10-18T00:04:21.900Z,72.70
2018-10-18T00:06:50.107Z,72.70
2018-10-18T00:09:18.330Z,72.90
2018-10-18T00:11:47.245Z,72.80
2018-10-18T00:14:15.543Z,72.90
2018-10-18T00:16:44.468Z,73.10
2018-10-18T00:19:12.639Z,73.30
2018-10-18T00:21:40.821Z,73.50
2018-10-18T00:24:08.998Z,73.60
2018-10-18T00:26:37.156Z,73.80
2018-10-18T00:29:05.337Z,73.90
2018-10-18T00:31:33.502Z,74.00
2018-10-18T00:34:01.701Z,74.20
2018-10-18T00:36:29.892Z,74.10
2018-10-18T00:38:58.102Z,74.10
2018-10-18T00:41:26.284Z,74.10
2018-10-18T00:43:54.508Z,74.00
2018-10-18T00:46:22.656Z,74.00
2018-10-18T00:48:50.840Z,74.00
2018-10-18T00:51:19.035Z,73.80
2018-10-18T00:53:47.235Z,73.80
2018-10-18T00:56:15.467Z,73.70
2018-10-18T00:58:43.619Z,73.70
2018-10-18T01:01:11.787Z,73.80
2018-10-18T01:03:40.006Z,73.80
2018-10-18T01:06:08.342Z,73.90
2018-10-18T01:08:36.424Z,73.60
2018-10-18T01:11:04.590Z,73.60
2018-10-18T01:13:32.782Z,73.50
2018-10-18T01:16:00.995Z,73.50
2018-10-18T01:18:29.220Z,73.50
2018-10-18T01:20:57.418Z,73.40
2018-10-18T01:23:25.624Z,73.40
2018-10-18T01:25:53.848Z,73.30
2018-10-18T01:28:22.014Z,73.10
2018-10-18T01:30:50.180Z,73.10
2018-10-18T01:33:18.347Z,73.10
2018-10-18T01:35:46.542Z,73.10
2018-10-18T01:38:14.756Z,73.40
2018-10-18T01:40:42.886Z,73.80
2018-10-18T01:43:11.075Z,72.90
2018-10-18T01:45:39.270Z,72.80
2018-10-18T01:48:08.020Z,72.80
2018-10-18T01:50:36.178Z,72.80
2018-10-18T01:53:04.367Z,73.60
2018-10-18T01:55:32.546Z,73.00
2018-10-18T01:58:00.759Z,72.70
2018-10-18T02:00:28.946Z,72.60
2018-10-18T02:02:57.134Z,72.50
2018-10-18T02:05:25.326Z,72.50
2018-10-18T02:07:53.546Z,72.60
2018-10-18T02:10:21.732Z,72.60
2018-10-18T02:12:49.914Z,72.50
2018-10-18T02:15:18.111Z,72.40
2018-10-18T02:17:46.268Z,72.50
2018-10-18T02:20:14.458Z,72.40
2018-10-18T02:22:42.647Z,72.30
2018-10-18T02:25:10.837Z,72.40
2018-10-18T02:27:38.979Z,72.30
2018-10-18T02:30:07.206Z,72.30
2018-10-18T02:32:35.430Z,72.10
2018-10-18T02:35:03.900Z,72.10
2018-10-18T02:37:32.074Z,72.20
2018-10-18T02:40:00.307Z,72.20
2018-10-18T02:42:28.492Z,72.30
2018-10-18T02:44:56.661Z,72.30
2018-10-18T02:47:24.832Z,72.30
2018-10-18T02:49:53.011Z,72.30
2018-10-18T02:52:21.259Z,72.30
2018-10-18T02:54:49.422Z,72.30
2018-10-18T02:57:17.606Z,72.30
2018-10-18T02:59:45.774Z,72.30
2018-10-18T03:02:14.010Z,72.30
2018-10-18T03:04:42.192Z,72.30
2018-10-18T03:07:10.390Z,72.30
2018-10-18T03:09:38.571Z,72.30
2018-10-18T03:12:06.833Z,72.20
2018-10-18T03:14:34.922Z,72.10
2018-10-18T03:17:03.094Z,72.10
2018-10-18T03:19:31.303Z,72.10
2018-10-18T03:21:59.498Z,72.00
2018-10-18T03:24:27.700Z,72.00
2018-10-18T03:26:55.907Z,72.00
2018-10-18T03:29:24.258Z,72.10
2018-10-18T03:31:52.435Z,72.20
2018-10-18T03:34:20.641Z,72.40
2018-10-18T03:36:48.811Z,72.50
2018-10-18T03:39:17.015Z,72.50
2018-10-18T03:41:45.236Z,72.70
2018-10-18T03:44:13.388Z,72.80
2018-10-18T03:46:41.555Z,72.80
2018-10-18T03:49:09.756Z,72.90
2018-10-18T03:51:37.916Z,72.90
2018-10-18T03:54:06.179Z,72.90
2018-10-18T03:56:34.258Z,72.80
2018-10-18T03:59:02.442Z,73.20
2018-10-18T04:01:30.627Z,72.70
2018-10-18T04:03:58.806Z,72.80
2018-10-18T04:06:27.010Z,72.90
2018-10-18T04:08:55.188Z,72.70
2018-10-18T04:11:23.377Z,72.80
2018-10-18T04:13:51.580Z,72.80
2018-10-18T04:16:19.859Z,72.70
2018-10-18T04:18:48.016Z,72.60
2018-10-18T04:21:16.209Z,72.60
2018-10-18T04:23:44.385Z,72.60
2018-10-18T04:26:12.570Z,72.60
2018-10-18T04:28:40.740Z,72.60
2018-10-18T04:31:08.930Z,72.50
2018-10-18T04:33:37.147Z,72.50
2018-10-18T04:36:05.647Z,72.50
2018-10-18T04:38:33.715Z,72.50
2018-10-18T04:41:01.902Z,72.50
2018-10-18T04:43:30.076Z,72.50
2018-10-18T04:45:58.256Z,72.50
2018-10-18T04:48:26.567Z,72.00
2018-10-18T04:50:54.723Z,72.70
2018-10-18T04:53:22.927Z,72.70
2018-10-18T04:55:51.153Z,72.80
2018-10-18T04:58:19.331Z,72.80
2018-10-18T05:00:47.522Z,72.80
2018-10-18T05:03:15.702Z,72.90
2018-10-18T05:05:58.191Z,72.80
2018-10-18T05:08:27.071Z,72.80
2018-10-18T05:10:55.462Z,72.80
2018-10-18T05:13:23.829Z,72.80
2018-10-18T05:15:52.019Z,72.70
2018-10-18T05:18:20.806Z,72.70
2018-10-18T05:20:48.990Z,72.60
2018-10-18T05:23:17.205Z,72.50
2018-10-18T05:25:46.170Z,72.30
2018-10-18T05:28:14.381Z,72.00
2018-10-18T05:30:42.640Z,72.00
2018-10-18T05:33:10.763Z,71.90
2018-10-18T05:35:38.927Z,71.70
2018-10-18T05:38:07.087Z,71.70
2018-10-18T05:40:35.255Z,71.70
2018-10-18T05:43:03.511Z,71.70
2018-10-18T05:45:31.622Z,71.90
2018-10-18T05:47:59.814Z,71.90
2018-10-18T05:50:28.030Z,71.80
2018-10-18T05:52:56.198Z,72.00
2018-10-18T05:55:24.368Z,72.10
2018-10-18T05:57:52.547Z,72.10
2018-10-18T06:00:20.779Z,72.30
2018-10-18T06:02:48.891Z,72.30
2018-10-18T06:05:17.726Z,72.40
2018-10-18T06:07:46.118Z,72.60
2018-10-18T06:10:26.389Z,72.50
2018-10-18T06:12:54.643Z,72.60
2018-10-18T06:15:23.258Z,72.10
2018-10-18T06:17:51.426Z,73.00
2018-10-18T06:20:20.386Z,73.10
2018-10-18T06:22:48.675Z,73.30
2018-10-18T06:25:16.918Z,73.40
2018-10-18T06:27:44.976Z,73.40
2018-10-18T06:30:14.423Z,73.40
2018-10-18T06:32:42.599Z,73.40
2018-10-18T06:35:12.060Z,73.40
2018-10-18T06:37:41.781Z,73.40
2018-10-18T06:40:15.610Z,73.40
2018-10-18T06:42:43.787Z,73.40
2018-10-18T06:45:13.403Z,73.50
2018-10-18T06:47:42.265Z,73.30
2018-10-18T06:50:12.688Z,73.30
2018-10-18T06:52:40.886Z,73.20
2018-10-18T06:55:09.138Z,73.10
2018-10-18T06:57:38.364Z,73.20
2018-10-18T07:00:10.088Z,73.10
2018-10-18T07:02:38.194Z,73.10
2018-10-18T07:05:07.384Z,73.00
2018-10-18T07:07:35.552Z,72.90
2018-10-18T07:10:03.758Z,73.70
2018-10-18T07:12:32.048Z,72.80
2018-10-18T07:15:00.350Z,72.70
2018-10-18T07:17:28.563Z,72.50
2018-10-18T07:19:56.716Z,72.50
2018-10-18T07:22:25.847Z,72.40
2018-10-18T07:24:54.204Z,72.40
2018-10-18T07:27:22.426Z,72.20
2018-10-18T07:29:50.595Z,72.20
2018-10-18T07:32:18.801Z,72.20
2018-10-18T07:34:47.012Z,72.00
2018-10-18T07:37:15.146Z,71.90
2018-10-18T07:39:43.311Z,71.80
2018-10-18T07:42:11.569Z,71.60
2018-10-18T07:44:39.685Z,71.60
2018-10-18T07:47:07.993Z,71.70
2018-10-18T07:49:36.174Z,71.60
2018-10-18T07:52:04.404Z,71.80
2018-10-18T07:54:32.571Z,71.90
2018-10-18T07:57:00.786Z,72.00
2018-10-18T07:59:29.006Z,71.90
2018-10-18T08:01:57.204Z,72.00
2018-10-18T08:04:25.393Z,71.80
2018-10-18T08:06:53.593Z,71.70
2018-10-18T08:09:21.811Z,71.80
2018-10-18T08:11:50.054Z,71.70
2018-10-18T08:14:18.310Z,71.50
2018-10-18T08:16:46.534Z,71.40
2018-10-18T08:19:14.867Z,71.40
2018-10-18T08:21:42.880Z,71.40
2018-10-18T08:24:11.074Z,71.30
2018-10-18T08:26:39.286Z,71.20
2018-10-18T08:29:07.574Z,71.20
2018-10-18T08:31:35.846Z,71.20
2018-10-18T08:34:04.026Z,71.20
2018-10-18T08:36:32.263Z,71.10
2018-10-18T08:39:00.474Z,71.00
2018-10-18T08:41:28.620Z,71.10
2018-10-18T08:43:58.229Z,71.40
2018-10-18T08:46:26.878Z,71.50
2018-10-18T08:48:55.127Z,71.20
2018-10-18T08:51:23.262Z,71.50
2018-10-18T08:53:51.427Z,72.20
2018-10-18T08:56:19.582Z,71.20
2018-10-18T08:58:47.836Z,70.80
2018-10-18T09:01:16.123Z,70.40
2018-10-18T09:03:44.226Z,70.10
2018-10-18T09:06:12.366Z,69.70
2018-10-18T09:08:40.595Z,69.80
2018-10-18T09:11:08.778Z,70.00
2018-10-18T09:13:36.999Z,69.80
2018-10-18T09:16:05.487Z,69.70
2018-10-18T09:18:33.643Z,69.40
2018-10-18T09:21:01.836Z,69.40
2018-10-18T09:23:30.021Z,69.20
2018-10-18T09:25:58.197Z,68.60
2018-10-18T09:28:26.391Z,68.30
2018-10-18T09:30:54.579Z,67.80
2018-10-18T09:33:22.732Z,67.50
2018-10-18T09:35:50.906Z,67.10
2018-10-18T09:38:19.118Z,67.00
2018-10-18T09:40:47.244Z,66.50
2018-10-18T09:43:15.426Z,67.20
2018-10-18T09:45:43.621Z,66.10
2018-10-18T09:48:11.790Z,65.70
2018-10-18T09:50:40.128Z,64.90
2018-10-18T09:53:12.237Z,64.50
2018-10-18T09:55:40.451Z,64.20
2018-10-18T09:58:08.595Z,64.00
2018-10-18T10:00:42.206Z,64.00
2018-10-18T10:03:16.061Z,64.10
2018-10-18T10:05:44.278Z,64.00
2018-10-18T10:08:12.965Z,64.30
2018-10-18T10:10:41.171Z,64.40
2018-10-18T10:13:10.447Z,64.80
2018-10-18T10:15:39.010Z,65.00
2018-10-18T10:18:08.120Z,65.10
2018-10-18T10:20:36.311Z,65.70
2018-10-18T10:23:04.538Z,64.70
2018-10-18T10:25:32.697Z,64.70
2018-10-18T10:28:00.982Z,64.70
2018-10-18T10:30:29.159Z,64.90
2018-10-18T10:32:57.351Z,65.80
2018-10-18T10:35:25.505Z,65.10
2018-10-18T10:37:53.643Z,65.60
2018-10-18T10:40:21.798Z,65.90
2018-10-18T10:42:50.119Z,66.40
2018-10-18T10:45:18.311Z,67.00
2018-10-18T10:47:46.443Z,67.60
2018-10-18T10:50:14.673Z,68.20
2018-10-18T10:52:42.783Z,68.60
2018-10-18T10:55:11.418Z,69.10
2018-10-18T10:57:39.720Z,69.60
2018-10-18T11:00:07.892Z,70.20
2018-10-18T11:02:36.019Z,70.70
2018-10-18T11:05:04.454Z,70.90
2018-10-18T11:07:32.622Z,71.00
2018-10-18T11:10:00.819Z,71.40
2018-10-18T11:12:29.052Z,71.50
2018-10-18T11:14:57.197Z,71.70
2018-10-18T11:17:25.294Z,72.10
2018-10-18T11:19:53.508Z,72.50
2018-10-18T11:22:21.615Z,73.00
2018-10-18T11:24:49.916Z,72.80
2018-10-18T11:27:18.034Z,72.60
2018-10-18T11:29:46.162Z,72.50
2018-10-18T11:32:14.354Z,72.70
2018-10-18T11:34:42.511Z,72.70
2018-10-18T11:37:10.810Z,72.80
2018-10-18T11:39:39.007Z,72.90
2018-10-18T11:42:07.232Z,73.20
2018-10-18T11:44:40.266Z,73.10
2018-10-18T11:47:09.595Z,72.80
2018-10-18T11:49:37.974Z,72.70
2018-10-18T11:52:06.189Z,72.70
2018-10-18T11:54:34.372Z,72.80
2018-10-18T11:57:02.521Z,73.00
2018-10-18T11:59:30.682Z,73.20
2018-10-18T12:01:58.850Z,73.10
2018-10-18T12:04:27.032Z,73.20
2018-10-18T12:06:55.191Z,73.20
2018-10-18T12:09:23.354Z,73.10
2018-10-18T12:11:51.535Z,73.10
2018-10-18T12:14:19.687Z,72.50
2018-10-18T12:16:47.990Z,72.40
2018-10-18T12:19:16.226Z,72.40
2018-10-18T12:21:44.340Z,72.40
2018-10-18T12:24:12.505Z,72.50
2018-10-18T12:26:40.736Z,72.80
2018-10-18T12:29:08.973Z,72.70
2018-10-18T12:31:37.078Z,72.80
2018-10-18T12:34:05.244Z,73.00
2018-10-18T12:36:33.421Z,73.20
2018-10-18T12:39:01.652Z,73.40
2018-10-18T12:41:29.782Z,73.70
2018-10-18T12:43:57.918Z,73.80
2018-10-18T12:46:26.090Z,73.90
2018-10-18T12:48:54.256Z,74.00
2018-10-18T12:51:22.451Z,74.10
2018-10-18T12:53:50.632Z,73.90
2018-10-18T12:56:18.971Z,74.00
2018-10-18T12:58:46.988Z,74.00
2018-10-18T13:01:15.163Z,74.00
2018-10-18T13:03:43.408Z,74.00
2018-10-18T13:06:11.633Z,74.10
2018-10-18T13:08:39.714Z,74.30
2018-10-18T13:11:07.907Z,74.40
2018-10-18T13:13:36.138Z,74.50
2018-10-18T13:16:04.331Z,74.40
2018-10-18T13:18:32.483Z,74.60
2018-10-18T13:21:00.655Z,74.60
2018-10-18T13:23:28.846Z,74.50
2018-10-18T13:25:57.026Z,74.40
2018-10-18T13:28:25.222Z,74.50
2018-10-18T13:30:53.459Z,74.70
2018-10-18T13:33:21.582Z,74.80
2018-10-18T13:35:49.722Z,75.10
2018-10-18T13:38:18.077Z,74.90
2018-10-18T13:40:46.183Z,74.80
2018-10-18T13:43:14.333Z,75.10
2018-10-18T13:45:42.498Z,75.10
2018-10-18T13:48:10.750Z,75.00
2018-10-18T13:50:38.837Z,75.00
2018-10-18T13:53:07.032Z,75.20
2018-10-18T13:55:35.449Z,75.30
2018-10-18T13:58:05.020Z,75.50
2018-10-18T14:00:33.191Z,75.50
2018-10-18T14:03:01.459Z,75.40
2018-10-18T14:05:29.651Z,75.40
2018-10-18T14:07:57.889Z,75.60
2018-10-18T14:10:26.099Z,75.70
2018-10-18T14:12:54.522Z,75.80
2018-10-18T14:15:22.690Z,75.90
2018-10-18T14:17:50.968Z,76.00
2018-10-18T14:20:19.173Z,76.10
2018-10-18T14:22:49.630Z,76.10
2018-10-18T14:25:17.926Z,76.20
2018-10-18T14:27:46.087Z,75.90
2018-10-18T14:30:14.340Z,75.70
2018-10-18T14:32:42.443Z,75.70
2018-10-18T14:35:12.948Z,75.70
2018-10-18T14:37:41.195Z,75.80
2018-10-18T14:40:11.098Z,75.80
2018-10-18T14:42:39.286Z,75.80
2018-10-18T14:45:08.130Z,75.90
2018-10-18T14:47:36.428Z,75.90
2018-10-18T14:50:05.202Z,75.80
2018-10-18T14:52:33.292Z,75.80
2018-10-18T14:55:01.474Z,75.90
2018-10-18T14:57:29.649Z,76.10
2018-10-18T14:59:57.849Z,76.00
2018-10-18T15:02:26.051Z,76.20
2018-10-18T15:04:54.269Z,76.30
2018-10-18T15:07:22.458Z,76.20
2018-10-18T15:09:50.615Z,76.20
2018-10-18T15:12:18.855Z,76.30
2018-10-18T15:14:47.034Z,76.40
2018-10-18T15:17:15.222Z,76.30
2018-10-18T15:19:43.374Z,76.30
2018-10-18T15:22:11.624Z,76.20
2018-10-18T15:24:39.787Z,76.20
2018-10-18T15:27:08.061Z,76.20
2018-10-18T15:29:36.139Z,76.20
2018-10-18T15:32:04.369Z,76.30
2018-10-18T15:34:32.439Z,76.40
2018-10-18T15:37:00.607Z,76.30
2018-10-18T15:39:28.812Z,76.30
2018-10-18T15:41:56.978Z,76.40
2018-10-18T15:44:25.202Z,76.30
2018-10-18T15:46:53.316Z,76.50
2018-10-18T15:49:21.455Z,76.50
2018-10-18T15:51:49.611Z,77.40
2018-10-18T15:54:17.880Z,76.30
2018-10-18T15:56:46.046Z,76.30
2018-10-18T15:59:14.258Z,76.40
2018-10-18T16:01:42.379Z,76.30
2018-10-18T16:04:10.526Z,76.20
2018-10-18T16:06:38.729Z,76.00
2018-10-18T16:09:08.791Z,75.80
2018-10-18T16:11:36.992Z,75.80
2018-10-18T16:14:05.359Z,75.70
2018-10-18T16:16:33.477Z,75.60
2018-10-18T16:19:01.651Z,76.40
2018-10-18T16:21:29.835Z,75.40
2018-10-18T16:23:58.049Z,75.40
2018-10-18T16:26:26.509Z,75.30
2018-10-18T16:28:54.614Z,75.40
2018-10-18T16:31:22.741Z,75.30
2018-10-18T16:33:50.965Z,75.30
2018-10-18T16:36:19.067Z,75.20
2018-10-18T16:38:47.268Z,75.20
2018-10-18T16:41:15.669Z,75.10
2018-10-18T16:43:43.651Z,75.20
2018-10-18T16:46:11.894Z,75.20
2018-10-18T16:48:39.995Z,75.30
2018-10-18T16:51:08.170Z,75.30
2018-10-18T16:53:36.354Z,75.40
2018-10-18T16:56:04.674Z,75.30
2018-10-18T16:58:32.847Z,75.40
2018-10-18T17:01:01.031Z,75.40
2018-10-18T17:03:29.192Z,75.40
2018-10-18T17:05:57.417Z,75.50
2018-10-18T17:08:25.594Z,75.40
2018-10-18T17:10:53.803Z,75.30
2018-10-18T17:13:22.004Z,75.40
2018-10-18T17:15:50.218Z,75.40
2018-10-18T17:18:18.437Z,75.40
2018-10-18T17:20:46.691Z,75.40
2018-10-18T17:23:14.853Z,75.40
2018-10-18T17:25:43.378Z,75.40
2018-10-18T17:28:11.822Z,75.40
2018-10-18T17:30:40.136Z,75.30
2018-10-18T17:33:08.311Z,75.20
2018-10-18T17:35:36.469Z,75.20
2018-10-18T17:38:04.887Z,75.00
2018-10-18T17:40:33.768Z,74.50
2018-10-18T17:43:02.007Z,74.00
2018-10-18T17:45:30.210Z,74.00
2018-10-18T17:47:58.376Z,73.30
2018-10-18T17:50:26.579Z,73.00
2018-10-18T17:52:54.820Z,72.30
2018-10-18T17:55:22.911Z,71.70
2018-10-18T17:57:51.109Z,71.30
2018-10-18T18:00:19.305Z,71.00
2018-10-18T18:02:47.530Z,70.50
2018-10-18T18:05:15.663Z,70.30
2018-10-18T18:07:43.848Z,70.30
2018-10-18T18:10:13.800Z,70.20
2018-10-18T18:12:41.951Z,70.30
2018-10-18T18:15:12.186Z,70.20
2018-10-18T18:17:41.864Z,70.20
2018-10-18T18:20:12.358Z,69.90
2018-10-18T18:22:41.610Z,69.80
2018-10-18T18:25:11.695Z,69.60
2018-10-18T18:27:40.350Z,69.60
2018-10-18T18:30:10.788Z,69.50
2018-10-18T18:32:40.008Z,69.40
2018-10-18T18:35:08.194Z,69.60
2018-10-18T18:37:36.952Z,69.30
2018-10-18T18:40:06.204Z,69.20
2018-10-18T18:42:34.376Z,69.00
2018-10-18T18:45:08.184Z,68.80
2018-10-18T18:47:36.319Z,68.70
2018-10-18T18:50:04.855Z,68.70
2018-10-18T18:52:33.107Z,68.50
2018-10-18T18:55:02.324Z,68.60
2018-10-18T18:57:33.446Z,68.70
2018-10-18T19:00:02.248Z,68.80
2018-10-18T19:02:30.527Z,68.90
2018-10-18T19:04:58.686Z,68.90
2018-10-18T19:07:27.435Z,68.90
2018-10-18T19:09:55.670Z,68.90
2018-10-18T19:12:23.893Z,68.80
2018-10-18T19:14:52.129Z,68.90
2018-10-18T19:17:20.339Z,68.90
2018-10-18T19:19:48.507Z,68.90
2018-10-18T19:22:17.434Z,68.80
2018-10-18T19:24:54.054Z,68.70
2018-10-18T19:27:22.291Z,68.70
2018-10-18T19:29:50.456Z,68.70
2018-10-18T19:32:18.622Z,68.70
2018-10-18T19:34:46.782Z,68.80
2018-10-18T19:37:14.980Z,68.70
2018-10-18T19:39:43.202Z,68.80
2018-10-18T19:42:11.515Z,68.80
2018-10-18T19:44:39.678Z,68.80
2018-10-18T19:47:07.819Z,68.80
2018-10-18T19:49:35.979Z,68.80
2018-10-18T19:52:04.155Z,68.70
2018-10-18T19:54:32.284Z,68.80
2018-10-18T19:57:00.451Z,68.70
2018-10-18T19:59:28.598Z,68.70
2018-10-18T20:01:56.827Z,68.60
2018-10-18T20:04:24.947Z,68.60
2018-10-18T20:06:53.090Z,68.40
2018-10-18T20:09:21.632Z,68.50
2018-10-18T20:11:49.806Z,68.50
2018-10-18T20:14:18.015Z,68.40
2018-10-18T20:16:46.113Z,68.40
2018-10-18T20:19:14.298Z,68.30
2018-10-18T20:21:42.674Z,68.30
2018-10-18T20:24:11.709Z,68.30
2018-10-18T20:26:40.018Z,68.30
2018-10-18T20:29:08.110Z,68.30
2018-10-18T20:31:36.309Z,68.40
2018-10-18T20:34:05.099Z,68.50
2018-10-18T20:36:33.255Z,68.50
2018-10-18T20:39:01.508Z,68.50
2018-10-18T20:41:29.658Z,68.50
2018-10-18T20:43:57.828Z,68.50
2018-10-18T20:46:26.011Z,68.50
2018-10-18T20:48:54.255Z,68.60
2018-10-18T20:51:22.392Z,68.60
2018-10-18T20:53:50.653Z,68.60
2018-10-18T20:56:19.063Z,69.50
2018-10-18T20:58:47.222Z,68.80
2018-10-18T21:01:15.346Z,68.80
2018-10-18T21:03:43.538Z,68.80
2018-10-18T21:06:12.695Z,68.90
2018-10-18T21:08:40.983Z,68.80
2018-10-18T21:11:10.411Z,69.00
2018-10-18T21:13:38.678Z,69.10
2018-10-18T21:16:07.094Z,69.10
2018-10-18T21:18:35.247Z,69.00
2018-10-18T21:21:03.406Z,69.00
2018-10-18T21:23:31.555Z,69.10
2018-10-18T21:25:59.711Z,69.10
2018-10-18T21:28:27.879Z,69.10
2018-10-18T21:30:56.088Z,69.10
2018-10-18T21:33:25.326Z,69.10
2018-10-18T21:35:53.777Z,69.20
2018-10-18T21:38:21.931Z,69.20
2018-10-18T21:40:50.087Z,69.20
2018-10-18T21:43:19.878Z,69.20
2018-10-18T21:45:48.154Z,69.10
2018-10-18T21:48:17.447Z,69.40
2018-10-18T21:50:45.838Z,69.40
2018-10-18T21:53:14.210Z,69.50
2018-10-18T21:55:42.211Z,70.40
2018-10-18T21:58:10.651Z,69.40
2018-10-18T22:00:45.386Z,69.50
2018-10-18T22:03:13.836Z,69.50
2018-10-18T22:05:41.930Z,69.50
2018-10-18T22:08:10.091Z,69.60
2018-10-18T22:10:38.246Z,69.60
2018-10-18T22:13:07.375Z,69.60
2018-10-18T22:15:35.537Z,69.60
2018-10-18T22:18:05.418Z,69.60
2018-10-18T22:20:33.620Z,69.50
2018-10-18T22:23:01.808Z,69.50
2018-10-18T22:25:30.069Z,69.60
2018-10-18T22:27:59.156Z,69.70
2018-10-18T22:30:27.331Z,69.50
2018-10-18T22:32:55.886Z,69.60
2018-10-18T22:35:23.996Z,69.50
2018-10-18T22:37:52.163Z,69.60
2018-10-18T22:40:20.330Z,69.70
2018-10-18T22:42:48.497Z,69.60
2018-10-18T22:45:16.684Z,69.80
2018-10-18T22:47:44.847Z,69.70
2018-10-18T22:50:12.979Z,69.80
2018-10-18T22:52:41.151Z,69.80
2018-10-18T22:55:09.302Z,69.70
2018-10-18T22:57:37.467Z,69.80
2018-10-18T23:00:07.279Z,70.70
2018-10-18T23:02:35.466Z,69.70
2018-10-18T23:05:03.736Z,69.50
2018-10-18T23:07:31.891Z,69.70
2018-10-18T23:10:00.051Z,69.70
2018-10-18T23:12:28.205Z,69.60
2018-10-18T23:14:56.401Z,69.70
2018-10-18T23:17:24.544Z,69.80
2018-10-18T23:19:52.686Z,69.80
2018-10-18T23:22:20.854Z,69.70
2018-10-18T23:24:49.019Z,69.70
2018-10-18T23:27:16.457Z,69.70
2018-10-18T23:29:44.605Z,69.60
2018-10-18T23:32:12.747Z,69.50
2018-10-18T23:34:40.890Z,69.60
2018-10-18T23:37:09.054Z,69.50
2018-10-18T23:39:37.206Z,69.50
2018-10-18T23:42:05.358Z,69.60
2018-10-18T23:44:33.508Z,69.60
2018-10-18T23:47:01.679Z,69.60
2018-10-18T23:49:29.802Z,69.50
2018-10-18T23:51:57.941Z,69.50
2018-10-18T23:54:26.106Z,69.40
2018-10-18T23:56:54.293Z,69.40
2018-10-18T23:59:22.461Z,69.20
